createdAt,value
2019-05-10T00:01:46.294Z,8.40
2019-05-10T00:07:20.661Z,8.40
2019-05-10T00:12:19.128Z,8.50
2019-05-10T00:14:52.600Z,8.50
2019-05-10T00:17:22.948Z,8.50
2019-05-10T00:19:51.799Z,8.40
2019-05-10T00:22:22.166Z,8.40
2019-05-10T00:27:21.175Z,8.40
2019-05-10T00:29:50.306Z,8.40
2019-05-10T00:37:16.813Z,8.40
2019-05-10T00:42:15.037Z,8.40
2019-05-10T00:44:52.056Z,8.40
2019-05-10T00:47:22.370Z,8.40
2019-05-10T00:49:51.944Z,8.40
2019-05-10T00:55:18.363Z,8.40
2019-05-10T00:57:38.152Z,8.40
2019-05-10T01:00:07.210Z,8.40
2019-05-10T01:05:04.949Z,8.40
2019-05-10T01:10:01.450Z,8.40
2019-05-10T01:12:29.861Z,8.40
2019-05-10T01:17:26.365Z,8.40
2019-05-10T01:19:55.794Z,8.40
2019-05-10T01:22:24.290Z,8.40
2019-05-10T01:24:52.749Z,8.40
2019-05-10T01:27:21.232Z,8.40
2019-05-10T01:29:49.897Z,8.30
2019-05-10T01:37:14.492Z,8.20
2019-05-10T01:39:42.900Z,8.10
2019-05-10T01:42:11.318Z,8.10
2019-05-10T01:49:36.233Z,8.00
2019-05-10T01:52:04.744Z,7.90
2019-05-10T01:54:42.217Z,7.80
2019-05-10T02:02:07.106Z,7.70
2019-05-10T02:07:03.617Z,7.30
2019-05-10T02:12:02.181Z,7.20
2019-05-10T02:14:30.877Z,7.20
2019-05-10T02:19:46.812Z,7.30
2019-05-10T02:22:15.316Z,7.30
2019-05-10T02:24:43.774Z,7.30
2019-05-10T02:27:12.200Z,7.30
2019-05-10T02:29:40.624Z,7.40
2019-05-10T02:34:37.470Z,7.60
2019-05-10T02:37:05.888Z,7.60
2019-05-10T02:39:34.306Z,7.60
2019-05-10T02:42:02.807Z,7.60
2019-05-10T02:44:31.237Z,7.60
2019-05-10T02:51:55.801Z,7.60
2019-05-10T02:54:24.488Z,7.60
2019-05-10T02:56:53.908Z,7.60
2019-05-10T03:01:54.473Z,7.60
2019-05-10T03:04:24.695Z,7.60
2019-05-10T03:09:25.807Z,7.60
2019-05-10T03:14:26.453Z,7.50
2019-05-10T03:16:54.878Z,7.30
2019-05-10T03:24:21.354Z,7.40
2019-05-10T03:26:51.469Z,7.40
2019-05-10T03:31:48.053Z,7.30
2019-05-10T03:34:16.534Z,7.20
2019-05-10T03:39:13.127Z,7.30
2019-05-10T03:41:42.283Z,7.30
2019-05-10T03:44:11.024Z,7.40
2019-05-10T03:46:39.432Z,7.40
2019-05-10T03:49:07.835Z,7.50
2019-05-10T03:51:36.251Z,7.50
2019-05-10T03:56:33.067Z,7.60
2019-05-10T04:01:29.839Z,7.60
2019-05-10T04:03:58.270Z,7.70
2019-05-10T04:06:26.683Z,7.60
2019-05-10T04:08:55.115Z,7.60
2019-05-10T04:11:23.538Z,7.60
2019-05-10T04:13:51.923Z,7.60
2019-05-10T04:21:16.877Z,7.60
2019-05-10T04:28:41.445Z,7.80
2019-05-10T04:31:09.862Z,7.90
2019-05-10T04:33:38.289Z,8.00
2019-05-10T04:36:11.762Z,8.00
2019-05-10T04:43:33.201Z,8.30
2019-05-10T04:48:29.770Z,8.40
2019-05-10T04:50:58.448Z,8.40
2019-05-10T05:00:51.278Z,8.60
2019-05-10T05:05:47.850Z,8.70
2019-05-10T05:10:44.638Z,8.70
2019-05-10T05:13:13.066Z,8.70
2019-05-10T05:15:41.498Z,8.70
2019-05-10T05:18:09.978Z,8.70
2019-05-10T05:20:38.441Z,8.80
2019-05-10T05:23:06.893Z,8.80
2019-05-10T05:25:40.128Z,8.90
2019-05-10T05:28:08.306Z,8.90
2019-05-10T05:30:38.644Z,8.90
2019-05-10T05:33:05.777Z,8.90
2019-05-10T05:38:02.297Z,9.10
2019-05-10T05:40:30.709Z,9.10
2019-05-10T05:43:02.622Z,9.30
2019-05-10T05:45:33.910Z,9.30
2019-05-10T05:50:27.510Z,9.40
2019-05-10T05:52:56.028Z,9.40
2019-05-10T05:55:30.537Z,9.50
2019-05-10T05:57:59.326Z,9.50
2019-05-10T06:00:25.121Z,9.50
2019-05-10T06:02:53.551Z,9.60
2019-05-10T06:05:34.154Z,9.60
2019-05-10T06:07:52.516Z,9.60
2019-05-10T06:12:50.598Z,9.80
2019-05-10T06:15:23.050Z,9.80
2019-05-10T06:20:19.751Z,9.90
2019-05-10T06:23:05.009Z,9.90
2019-05-10T06:25:18.306Z,10.00
2019-05-10T06:27:46.719Z,10.10
2019-05-10T06:30:15.401Z,10.20
2019-05-10T06:32:43.825Z,10.30
2019-05-10T06:35:14.009Z,10.40
2019-05-10T06:37:42.441Z,10.50
2019-05-10T06:40:11.217Z,10.50
2019-05-10T06:42:39.713Z,10.50
2019-05-10T06:45:14.521Z,10.50
2019-05-10T06:47:41.920Z,10.60
2019-05-10T06:50:10.902Z,10.60
2019-05-10T06:52:39.395Z,10.60
2019-05-10T06:55:08.443Z,10.60
2019-05-10T06:58:00.447Z,10.60
2019-05-10T07:02:54.433Z,10.60
2019-05-10T07:05:42.198Z,10.60
2019-05-10T07:08:19.507Z,10.70
2019-05-10T07:10:42.146Z,10.80
2019-05-10T07:13:11.513Z,10.80
2019-05-10T07:15:42.019Z,10.80
2019-05-10T07:18:11.016Z,10.90
2019-05-10T07:20:43.024Z,11.00
2019-05-10T07:23:09.815Z,11.00
2019-05-10T07:25:43.613Z,11.10
2019-05-10T07:28:09.519Z,11.10
2019-05-10T07:30:41.512Z,11.10
2019-05-10T07:33:09.070Z,11.30
2019-05-10T07:35:38.814Z,11.40
2019-05-10T07:38:07.469Z,11.40
2019-05-10T07:40:36.315Z,11.50
2019-05-10T07:43:05.204Z,11.70
2019-05-10T07:45:34.414Z,11.90
2019-05-10T07:48:08.111Z,12.00
2019-05-10T07:50:33.677Z,12.10
2019-05-10T07:55:30.681Z,12.40
2019-05-10T07:58:04.805Z,12.50
2019-05-10T08:00:29.376Z,12.50
2019-05-10T08:03:11.831Z,12.50
2019-05-10T08:05:29.464Z,12.50
2019-05-10T08:07:58.796Z,12.60
2019-05-10T08:10:28.925Z,12.80
2019-05-10T08:12:59.524Z,12.80
2019-05-10T08:15:30.564Z,12.80
2019-05-10T08:17:59.262Z,12.70
2019-05-10T08:20:42.344Z,12.80
2019-05-10T08:22:58.387Z,12.90
2019-05-10T08:25:29.324Z,12.80
2019-05-10T08:27:57.181Z,12.80
2019-05-10T08:30:42.718Z,12.70
2019-05-10T08:33:09.815Z,12.70
2019-05-10T08:35:39.270Z,12.70
2019-05-10T08:38:08.656Z,12.70
2019-05-10T08:40:39.597Z,12.80
2019-05-10T08:43:10.967Z,12.80
2019-05-10T08:45:38.983Z,12.90
2019-05-10T08:48:08.494Z,13.00
2019-05-10T08:50:49.577Z,13.10
2019-05-10T08:53:10.998Z,13.20
2019-05-10T08:55:37.783Z,13.50
2019-05-10T08:58:06.375Z,13.50
2019-05-10T09:00:49.588Z,13.60
2019-05-10T09:03:09.283Z,13.70
2019-05-10T09:08:05.779Z,14.00
2019-05-10T09:10:34.601Z,14.10
2019-05-10T09:13:03.457Z,14.20
2019-05-10T09:15:33.111Z,14.30
2019-05-10T09:18:04.372Z,14.40
2019-05-10T09:20:32.084Z,14.40
2019-05-10T09:23:02.350Z,14.50
2019-05-10T09:25:32.594Z,14.60
2019-05-10T09:28:02.320Z,14.50
2019-05-10T09:30:36.413Z,14.50
2019-05-10T09:33:08.689Z,14.40
2019-05-10T09:35:39.117Z,14.50
2019-05-10T09:38:05.642Z,14.50
2019-05-10T09:40:34.162Z,14.50
2019-05-10T09:43:07.528Z,14.30
2019-05-10T09:45:33.400Z,14.20
2019-05-10T09:48:02.564Z,14.10
2019-05-10T09:50:41.360Z,13.90
2019-05-10T09:53:02.042Z,13.50
2019-05-10T09:55:30.802Z,13.50
2019-05-10T10:00:33.609Z,13.20
2019-05-10T10:03:02.691Z,13.20
2019-05-10T10:05:31.599Z,13.10
2019-05-10T10:08:03.687Z,13.30
2019-05-10T10:10:32.496Z,13.30
2019-05-10T10:13:08.560Z,13.50
2019-05-10T10:15:34.295Z,13.70
2019-05-10T10:18:01.421Z,14.10
2019-05-10T10:20:35.896Z,14.10
2019-05-10T10:23:01.722Z,14.20
2019-05-10T10:25:35.254Z,14.20
2019-05-10T10:30:31.418Z,14.40
2019-05-10T10:32:59.109Z,14.40
2019-05-10T10:35:29.887Z,14.40
2019-05-10T10:38:02.984Z,14.30
2019-05-10T10:40:29.079Z,14.30
2019-05-10T10:42:57.852Z,14.30
2019-05-10T10:45:27.716Z,14.40
2019-05-10T10:47:57.305Z,14.40
2019-05-10T10:50:27.534Z,14.40
2019-05-10T10:52:57.509Z,14.40
2019-05-10T10:55:30.570Z,14.50
2019-05-10T10:57:57.697Z,14.50
2019-05-10T11:00:34.227Z,14.70
2019-05-10T11:03:04.117Z,14.70
2019-05-10T11:05:32.621Z,14.80
2019-05-10T11:08:01.373Z,14.80
2019-05-10T11:11:21.431Z,14.80
2019-05-10T11:13:57.381Z,14.80
2019-05-10T11:16:20.747Z,14.70
2019-05-10T11:18:51.885Z,14.60
2019-05-10T11:21:23.313Z,14.60
2019-05-10T11:23:51.303Z,14.60
2019-05-10T11:26:21.736Z,14.60
2019-05-10T11:28:51.372Z,14.60
2019-05-10T11:31:21.372Z,14.70
2019-05-10T11:33:56.021Z,14.70
2019-05-10T11:36:21.185Z,14.90
2019-05-10T11:38:56.875Z,15.10
2019-05-10T11:41:23.815Z,15.10
2019-05-10T11:43:50.505Z,15.20
2019-05-10T11:46:20.876Z,15.20
2019-05-10T11:48:51.073Z,15.20
2019-05-10T11:51:21.146Z,15.10
2019-05-10T11:53:55.505Z,15.10
2019-05-10T11:56:26.787Z,15.10
2019-05-10T11:58:55.612Z,15.30
2019-05-10T12:01:25.009Z,15.50
2019-05-10T12:03:54.056Z,15.60
2019-05-10T12:06:22.889Z,15.70
2019-05-10T12:08:59.896Z,15.60
2019-05-10T12:11:32.586Z,15.70
2019-05-10T12:13:57.225Z,15.60
2019-05-10T12:16:22.542Z,15.60
2019-05-10T12:19:05.554Z,15.50
2019-05-10T12:21:40.493Z,15.40
2019-05-10T12:24:26.035Z,15.50
2019-05-10T12:29:13.460Z,15.60
2019-05-10T12:31:41.495Z,15.40
2019-05-10T12:34:14.416Z,15.30
2019-05-10T12:36:41.381Z,15.10
2019-05-10T12:39:11.744Z,15.00
2019-05-10T12:41:47.796Z,14.90
2019-05-10T12:44:15.814Z,14.90
2019-05-10T12:46:44.326Z,14.90
2019-05-10T12:49:14.091Z,14.90
2019-05-10T12:51:43.238Z,14.90
2019-05-10T12:54:11.833Z,15.20
2019-05-10T12:56:43.834Z,15.30
2019-05-10T12:59:11.005Z,15.30
2019-05-10T13:01:39.476Z,15.30
2019-05-10T13:04:14.873Z,15.30
2019-05-10T13:06:38.818Z,15.10
2019-05-10T13:09:07.690Z,15.10
2019-05-10T13:11:36.331Z,15.10
2019-05-10T13:14:07.469Z,15.00
2019-05-10T13:16:35.122Z,14.70
2019-05-10T13:19:03.857Z,14.00
2019-05-10T13:21:32.342Z,14.00
2019-05-10T13:24:00.817Z,13.10
2019-05-10T13:26:29.254Z,12.80
2019-05-10T13:29:02.247Z,12.40
2019-05-10T13:31:47.401Z,11.90
2019-05-10T13:44:08.181Z,12.00
2019-05-10T13:46:36.594Z,12.20
2019-05-10T13:49:05.029Z,12.30
2019-05-10T13:51:33.442Z,12.50
2019-05-10T13:54:04.564Z,12.70
2019-05-10T13:56:32.073Z,12.80
2019-05-10T13:59:13.922Z,12.80
2019-05-10T14:01:31.213Z,12.80
2019-05-10T14:04:00.879Z,12.80
2019-05-10T14:06:30.115Z,12.90
2019-05-10T14:08:58.589Z,13.00
2019-05-10T14:11:27.006Z,13.10
2019-05-10T14:13:55.434Z,13.10
2019-05-10T14:16:24.129Z,13.20
2019-05-10T14:18:52.910Z,13.30
2019-05-10T14:21:21.345Z,13.40
2019-05-10T14:23:49.766Z,13.50
2019-05-10T14:26:18.443Z,13.50
2019-05-10T14:28:47.425Z,13.50
2019-05-10T14:31:17.018Z,13.50
2019-05-10T14:33:49.697Z,13.50
2019-05-10T14:36:15.582Z,13.70
2019-05-10T14:38:47.266Z,13.70
2019-05-10T14:41:14.484Z,13.70
2019-05-10T14:43:42.912Z,13.90
2019-05-10T14:46:13.721Z,14.10
2019-05-10T14:48:41.517Z,14.30
2019-05-10T14:51:11.983Z,14.50
2019-05-10T14:53:40.105Z,14.70
2019-05-10T14:56:14.184Z,14.80
2019-05-10T14:58:38.669Z,14.80
2019-05-10T15:01:10.348Z,14.80
2019-05-10T15:03:45.209Z,14.70
2019-05-10T15:06:08.922Z,14.50
2019-05-10T15:08:37.342Z,14.50
2019-05-10T15:11:05.769Z,14.50
2019-05-10T15:13:35.151Z,14.50
2019-05-10T15:16:08.363Z,14.50
2019-05-10T15:18:34.124Z,14.50
2019-05-10T15:21:02.561Z,14.60
2019-05-10T15:23:30.973Z,14.60
2019-05-10T15:26:10.705Z,14.60
2019-05-10T15:28:34.301Z,14.70
2019-05-10T15:30:59.989Z,14.70
2019-05-10T15:33:28.408Z,14.70
2019-05-10T15:35:56.841Z,14.70
2019-05-10T15:38:25.269Z,14.60
2019-05-10T15:40:53.701Z,14.50
2019-05-10T15:43:22.456Z,14.40
2019-05-10T15:45:52.856Z,14.30
2019-05-10T15:48:21.032Z,14.30
2019-05-10T15:50:49.451Z,14.30
2019-05-10T15:53:19.581Z,14.40
2019-05-10T15:55:48.017Z,14.40
2019-05-10T15:58:16.441Z,14.40
2019-05-10T16:00:44.878Z,14.50
2019-05-10T16:03:13.283Z,14.50
2019-05-10T16:05:43.958Z,14.50
2019-05-10T16:08:13.769Z,14.50
2019-05-10T16:10:42.019Z,14.40
2019-05-10T16:13:15.158Z,14.40
2019-05-10T16:15:40.899Z,14.50
2019-05-10T16:18:09.717Z,14.50
2019-05-10T16:20:39.045Z,14.60
2019-05-10T16:23:08.898Z,14.70
2019-05-10T16:25:41.201Z,14.80
2019-05-10T16:28:07.780Z,14.80
2019-05-10T16:30:36.668Z,14.80
2019-05-10T16:33:09.879Z,14.80
2019-05-10T16:35:38.733Z,14.70
2019-05-10T16:38:05.540Z,14.60
2019-05-10T16:40:33.969Z,14.60
2019-05-10T16:43:06.922Z,14.60
2019-05-10T16:45:32.520Z,14.70
2019-05-10T16:48:05.400Z,14.80
2019-05-10T16:50:33.498Z,14.90
2019-05-10T16:53:05.819Z,14.90
2019-05-10T16:55:35.632Z,14.80
2019-05-10T16:58:02.018Z,14.70
2019-05-10T17:00:30.493Z,14.60
2019-05-10T17:02:58.918Z,14.60
2019-05-10T17:05:27.338Z,14.50
2019-05-10T17:07:58.808Z,14.50
2019-05-10T17:10:26.855Z,14.50
2019-05-10T17:12:59.671Z,14.50
2019-05-10T17:15:26.192Z,14.50
2019-05-10T17:17:54.697Z,14.50
2019-05-10T17:20:23.154Z,14.50
2019-05-10T17:22:51.568Z,14.40
2019-05-10T17:25:22.583Z,14.40
2019-05-10T17:27:56.847Z,14.40
2019-05-10T17:30:21.612Z,14.40
2019-05-10T17:32:50.717Z,14.40
2019-05-10T17:35:19.133Z,14.40
2019-05-10T17:37:47.561Z,14.40
2019-05-10T17:40:16.045Z,14.30
2019-05-10T17:42:44.469Z,14.20
2019-05-10T17:45:18.824Z,14.10
2019-05-10T17:47:48.686Z,14.10
2019-05-10T17:50:17.196Z,14.00
2019-05-10T17:52:45.617Z,13.90
2019-05-10T17:55:16.823Z,13.90
2019-05-10T17:57:48.765Z,13.90
2019-05-10T18:00:15.960Z,13.80
2019-05-10T18:02:47.460Z,13.80
2019-05-10T18:05:15.977Z,13.80
2019-05-10T18:07:44.588Z,13.90
2019-05-10T18:10:14.093Z,13.90
2019-05-10T18:12:42.510Z,13.90
2019-05-10T18:15:11.186Z,13.90
2019-05-10T18:17:40.820Z,13.90
2019-05-10T18:20:10.183Z,13.90
2019-05-10T18:22:43.260Z,13.80
2019-05-10T18:25:19.270Z,13.80
2019-05-10T18:27:39.325Z,13.70
2019-05-10T18:30:09.394Z,13.60
2019-05-10T18:32:37.952Z,13.50
2019-05-10T18:35:14.235Z,13.40
2019-05-10T18:37:59.656Z,13.30
2019-05-10T18:40:31.828Z,13.20
2019-05-10T18:43:11.607Z,13.10
2019-05-10T18:45:37.468Z,13.00
2019-05-10T18:48:06.037Z,12.90
2019-05-10T18:50:39.437Z,12.80
2019-05-10T18:53:04.612Z,12.80
2019-05-10T18:55:33.033Z,12.70
2019-05-10T18:58:01.449Z,12.70
2019-05-10T19:00:29.877Z,12.70
2019-05-10T19:02:58.288Z,12.60
2019-05-10T19:05:31.416Z,12.60
2019-05-10T19:08:04.741Z,12.50
2019-05-10T19:10:27.657Z,12.50
2019-05-10T19:13:01.378Z,12.40
2019-05-10T19:15:26.309Z,12.40
2019-05-10T19:17:54.720Z,12.30
2019-05-10T19:20:23.157Z,12.30
2019-05-10T19:22:51.913Z,12.20
2019-05-10T19:25:20.426Z,12.20
2019-05-10T19:27:50.939Z,12.00
2019-05-10T19:30:20.722Z,11.90
2019-05-10T19:32:50.946Z,11.80
2019-05-10T19:35:19.585Z,11.80
2019-05-10T19:37:48.000Z,11.70
2019-05-10T19:40:17.067Z,11.60
2019-05-10T19:42:49.136Z,11.50
2019-05-10T19:45:19.394Z,11.40
2019-05-10T19:47:50.029Z,11.40
2019-05-10T19:50:16.325Z,11.30
2019-05-10T19:52:44.746Z,11.30
2019-05-10T19:55:19.378Z,11.20
2019-05-10T19:57:43.454Z,11.00
2019-05-10T20:00:12.315Z,10.90
2019-05-10T20:02:40.721Z,10.80
2019-05-10T20:05:09.286Z,10.80
2019-05-10T20:07:45.953Z,10.70
2019-05-10T20:10:08.424Z,10.60
2019-05-10T20:12:36.895Z,10.50
2019-05-10T20:15:07.249Z,10.50
2019-05-10T20:17:35.667Z,10.60
2019-05-10T20:20:06.467Z,10.60
2019-05-10T20:22:36.281Z,10.60
2019-05-10T20:25:07.638Z,10.60
2019-05-10T20:27:36.055Z,10.60
2019-05-10T20:30:06.019Z,10.60
2019-05-10T20:32:34.424Z,10.60
2019-05-10T20:35:03.180Z,10.50
2019-05-10T20:37:31.580Z,10.50
2019-05-10T20:40:00.005Z,10.40
2019-05-10T20:42:28.424Z,10.30
2019-05-10T20:45:06.895Z,10.30
2019-05-10T20:47:27.023Z,10.30
2019-05-10T20:49:55.485Z,10.20
2019-05-10T20:52:23.897Z,10.30
2019-05-10T20:54:52.316Z,10.30
2019-05-10T20:57:40.065Z,10.40
2019-05-10T21:00:09.030Z,10.40
2019-05-10T21:02:37.462Z,10.40
2019-05-10T21:05:07.080Z,10.40
2019-05-10T21:07:35.493Z,10.30
2019-05-10T21:10:05.871Z,10.30
2019-05-10T21:12:34.310Z,10.30
2019-05-10T21:15:03.463Z,10.30
2019-05-10T21:17:31.950Z,10.30
2019-05-10T21:20:00.453Z,10.30
2019-05-10T21:22:28.871Z,10.30
2019-05-10T21:24:57.293Z,10.30
2019-05-10T21:27:25.960Z,10.30
2019-05-10T21:29:54.395Z,10.30
2019-05-10T21:32:22.886Z,10.30
2019-05-10T21:34:51.306Z,10.30
2019-05-10T21:37:20.000Z,10.40
2019-05-10T21:39:48.461Z,10.40
2019-05-10T21:42:16.924Z,10.50
2019-05-10T21:44:45.330Z,10.50
2019-05-10T21:47:13.758Z,10.50
2019-05-10T21:49:42.230Z,10.50
2019-05-10T21:52:10.684Z,10.50
2019-05-10T21:54:39.096Z,10.60
2019-05-10T21:57:07.531Z,10.60
2019-05-10T21:59:35.929Z,10.60
2019-05-10T22:02:04.592Z,10.60
2019-05-10T22:04:33.053Z,10.60
2019-05-10T22:07:01.588Z,10.60
2019-05-10T22:09:30.042Z,10.60
2019-05-10T22:11:59.793Z,10.60
2019-05-10T22:14:28.703Z,10.50
2019-05-10T22:16:57.164Z,10.50
2019-05-10T22:19:25.953Z,10.50
2019-05-10T22:21:55.477Z,10.40
2019-05-10T22:24:24.145Z,10.40
2019-05-10T22:26:52.618Z,10.40
2019-05-10T22:29:21.068Z,10.30
2019-05-10T22:31:49.519Z,10.30
2019-05-10T22:34:18.062Z,10.30
2019-05-10T22:36:46.609Z,10.30
2019-05-10T22:39:15.341Z,10.30
2019-05-10T22:41:43.797Z,10.30
2019-05-10T22:44:12.256Z,10.30
2019-05-10T22:46:40.711Z,10.30
2019-05-10T22:49:09.166Z,10.30
2019-05-10T22:51:37.633Z,10.30
2019-05-10T22:54:06.086Z,10.30
2019-05-10T22:56:34.574Z,10.20
2019-05-10T22:59:03.020Z,10.20
2019-05-10T23:01:31.484Z,10.20
2019-05-10T23:04:00.014Z,10.30
2019-05-10T23:06:28.543Z,10.20
2019-05-10T23:08:57.005Z,10.30
2019-05-10T23:11:25.462Z,10.20
2019-05-10T23:13:53.924Z,10.20
2019-05-10T23:16:22.376Z,10.20
2019-05-10T23:18:51.101Z,10.20
2019-05-10T23:21:19.549Z,10.10
2019-05-10T23:23:48.016Z,10.10
2019-05-10T23:26:16.470Z,10.10
2019-05-10T23:28:44.940Z,10.10
2019-05-10T23:31:13.456Z,10.10
2019-05-10T23:33:41.921Z,10.10
2019-05-10T23:36:10.382Z,10.20
2019-05-10T23:38:38.837Z,10.20
2019-05-10T23:41:07.297Z,10.30
2019-05-10T23:43:35.753Z,10.30
2019-05-10T23:46:04.218Z,10.30
2019-05-10T23:48:32.681Z,10.30
2019-05-10T23:51:01.150Z,10.20
2019-05-10T23:53:29.936Z,10.20
2019-05-10T23:55:58.392Z,10.20
2019-05-10T23:58:26.858Z,10.20
